sensor_id;sensor_type;location;lat;lon;timestamp;P1;durP1;ratioP1;P2;durP2;ratioP2
5961;SDS011;3007;50.770;0.250;2022-09-21T00:01:25;1.53;;;1.37;;
5961;SDS011;3007;50.770;0.250;2022-09-21T00:03:53;1.97;;;1.30;;
5961;SDS011;3007;50.770;0.250;2022-09-21T00:06:22;2.60;;;1.30;;
5961;SDS011;3007;50.770;0.250;2022-09-21T00:08:50;2.40;;;1.10;;
5961;SDS011;3007;50.770;0.250;2022-09-21T00:11:18;1.60;;;1.50;;
5961;SDS011;3007;50.770;0.250;2022-09-21T00:13:50;1.40;;;1.30;;
5961;SDS011;3007;50.770;0.250;2022-09-21T00:16:18;3.57;;;1.70;;
5961;SDS011;3007;50.770;0.250;2022-09-21T00:18:46;4.33;;;1.93;;
5961;SDS011;3007;50.770;0.250;2022-09-21T00:21:14;2.30;;;1.37;;
5961;SDS011;3007;50.770;0.250;2022-09-21T00:23:42;2.03;;;1.20;;
5961;SDS011;3007;50.770;0.250;2022-09-21T00:26:10;3.90;;;1.50;;
5961;SDS011;3007;50.770;0.250;2022-09-21T00:28:39;1.87;;;1.27;;
5961;SDS011;3007;50.770;0.250;2022-09-21T00:31:07;4.33;;;1.40;;
5961;SDS011;3007;50.770;0.250;2022-09-21T00:33:36;1.43;;;1.33;;
5961;SDS011;3007;50.770;0.250;2022-09-21T00:36:04;1.63;;;1.53;;
5961;SDS011;3007;50.770;0.250;2022-09-21T00:38:33;1.50;;;1.17;;
5961;SDS011;3007;50.770;0.250;2022-09-21T00:41:00;1.60;;;1.30;;
5961;SDS011;3007;50.770;0.250;2022-09-21T00:43:28;1.57;;;1.43;;
5961;SDS011;3007;50.770;0.250;2022-09-21T00:45:59;3.87;;;1.40;;
5961;SDS011;3007;50.770;0.250;2022-09-21T00:48:28;1.67;;;1.27;;
5961;SDS011;3007;50.770;0.250;2022-09-21T00:50:57;1.70;;;1.40;;
5961;SDS011;3007;50.770;0.250;2022-09-21T00:53:29;1.77;;;1.50;;
5961;SDS011;3007;50.770;0.250;2022-09-21T00:55:57;1.70;;;1.50;;
5961;SDS011;3007;50.770;0.250;2022-09-21T00:58:27;4.80;;;1.60;;
5961;SDS011;3007;50.770;0.250;2022-09-21T01:00:57;1.90;;;1.63;;
5961;SDS011;3007;50.770;0.250;2022-09-21T01:03:25;1.30;;;1.20;;
5961;SDS011;3007;50.770;0.250;2022-09-21T01:05:55;1.87;;;1.57;;
5961;SDS011;3007;50.770;0.250;2022-09-21T01:08:22;2.90;;;1.70;;
5961;SDS011;3007;50.770;0.250;2022-09-21T01:11:09;2.27;;;1.70;;
5961;SDS011;3007;50.770;0.250;2022-09-21T01:13:51;3.37;;;1.60;;
5961;SDS011;3007;50.770;0.250;2022-09-21T01:16:32;2.67;;;1.60;;
5961;SDS011;3007;50.770;0.250;2022-09-21T01:19:06;4.37;;;1.80;;
5961;SDS011;3007;50.770;0.250;2022-09-21T01:21:44;2.00;;;1.40;;
5961;SDS011;3007;50.770;0.250;2022-09-21T01:24:28;2.97;;;1.73;;
5961;SDS011;3007;50.770;0.250;2022-09-21T01:30:16;4.23;;;1.67;;
5961;SDS011;3007;50.770;0.250;2022-09-21T01:32:45;4.47;;;1.67;;
5961;SDS011;3007;50.770;0.250;2022-09-21T01:35:17;3.57;;;1.83;;
5961;SDS011;3007;50.770;0.250;2022-09-21T01:37:48;2.07;;;1.50;;
5961;SDS011;3007;50.770;0.250;2022-09-21T01:40:22;2.10;;;1.90;;
5961;SDS011;3007;50.770;0.250;2022-09-21T01:42:53;4.47;;;1.80;;
5961;SDS011;3007;50.770;0.250;2022-09-21T01:45:25;1.80;;;1.50;;
5961;SDS011;3007;50.770;0.250;2022-09-21T01:47:56;2.97;;;2.20;;
5961;SDS011;3007;50.770;0.250;2022-09-21T01:50:25;3.73;;;2.00;;
5961;SDS011;3007;50.770;0.250;2022-09-21T01:52:57;2.37;;;1.77;;
5961;SDS011;3007;50.770;0.250;2022-09-21T01:55:28;3.97;;;2.20;;
5961;SDS011;3007;50.770;0.250;2022-09-21T01:58:00;2.83;;;1.70;;
5961;SDS011;3007;50.770;0.250;2022-09-21T02:00:36;2.93;;;2.00;;
5961;SDS011;3007;50.770;0.250;2022-09-21T02:03:04;2.43;;;1.90;;
5961;SDS011;3007;50.770;0.250;2022-09-21T02:05:38;1.97;;;1.77;;
5961;SDS011;3007;50.770;0.250;2022-09-21T02:08:06;2.30;;;2.10;;
5961;SDS011;3007;50.770;0.250;2022-09-21T02:10:35;2.17;;;1.93;;
5961;SDS011;3007;50.770;0.250;2022-09-21T02:13:05;2.60;;;2.10;;
5961;SDS011;3007;50.770;0.250;2022-09-21T02:15:38;2.30;;;2.00;;
5961;SDS011;3007;50.770;0.250;2022-09-21T02:18:14;3.90;;;2.20;;
5961;SDS011;3007;50.770;0.250;2022-09-21T02:20:54;2.50;;;2.03;;
5961;SDS011;3007;50.770;0.250;2022-09-21T02:23:24;2.37;;;1.90;;
5961;SDS011;3007;50.770;0.250;2022-09-21T02:25:58;3.80;;;2.23;;
5961;SDS011;3007;50.770;0.250;2022-09-21T02:28:34;3.50;;;2.60;;
5961;SDS011;3007;50.770;0.250;2022-09-21T02:31:11;3.43;;;2.50;;
5961;SDS011;3007;50.770;0.250;2022-09-21T02:33:43;2.80;;;2.50;;
5961;SDS011;3007;50.770;0.250;2022-09-21T02:36:18;4.73;;;2.50;;
5961;SDS011;3007;50.770;0.250;2022-09-21T02:38:55;2.90;;;2.13;;
5961;SDS011;3007;50.770;0.250;2022-09-21T02:41:31;3.23;;;2.27;;
5961;SDS011;3007;50.770;0.250;2022-09-21T02:44:05;2.57;;;2.10;;
5961;SDS011;3007;50.770;0.250;2022-09-21T02:46:38;2.93;;;2.33;;
5961;SDS011;3007;50.770;0.250;2022-09-21T02:49:11;2.77;;;2.00;;
5961;SDS011;3007;50.770;0.250;2022-09-21T02:51:43;2.63;;;2.20;;
5961;SDS011;3007;50.770;0.250;2022-09-21T02:54:14;2.40;;;2.20;;
5961;SDS011;3007;50.770;0.250;2022-09-21T02:56:44;2.80;;;2.50;;
5961;SDS011;3007;50.770;0.250;2022-09-21T02:59:13;2.70;;;2.03;;
5961;SDS011;3007;50.770;0.250;2022-09-21T03:01:43;3.33;;;2.43;;
5961;SDS011;3007;50.770;0.250;2022-09-21T03:04:10;2.83;;;2.07;;
5961;SDS011;3007;50.770;0.250;2022-09-21T03:06:37;4.27;;;1.90;;
5961;SDS011;3007;50.770;0.250;2022-09-21T03:09:03;2.27;;;1.97;;
5961;SDS011;3007;50.770;0.250;2022-09-21T03:11:30;3.90;;;2.27;;
5961;SDS011;3007;50.770;0.250;2022-09-21T03:13:58;1.97;;;1.77;;
5961;SDS011;3007;50.770;0.250;2022-09-21T03:16:25;2.67;;;2.00;;
5961;SDS011;3007;50.770;0.250;2022-09-21T03:18:53;5.13;;;1.80;;
5961;SDS011;3007;50.770;0.250;2022-09-21T03:21:20;2.30;;;1.63;;
5961;SDS011;3007;50.770;0.250;2022-09-21T03:23:47;1.93;;;1.60;;
5961;SDS011;3007;50.770;0.250;2022-09-21T03:26:14;1.60;;;1.50;;
5961;SDS011;3007;50.770;0.250;2022-09-21T03:28:41;2.00;;;1.50;;
5961;SDS011;3007;50.770;0.250;2022-09-21T03:31:08;1.57;;;1.30;;
5961;SDS011;3007;50.770;0.250;2022-09-21T03:33:35;1.97;;;1.53;;
5961;SDS011;3007;50.770;0.250;2022-09-21T03:36:03;1.43;;;1.20;;
5961;SDS011;3007;50.770;0.250;2022-09-21T03:38:30;1.83;;;1.27;;
5961;SDS011;3007;50.770;0.250;2022-09-21T03:40:57;2.10;;;1.30;;
5961;SDS011;3007;50.770;0.250;2022-09-21T03:43:24;1.57;;;1.40;;
5961;SDS011;3007;50.770;0.250;2022-09-21T03:45:51;1.63;;;1.23;;
5961;SDS011;3007;50.770;0.250;2022-09-21T03:48:18;2.33;;;1.30;;
5961;SDS011;3007;50.770;0.250;2022-09-21T03:50:45;3.60;;;1.80;;
5961;SDS011;3007;50.770;0.250;2022-09-21T03:53:15;1.80;;;1.50;;
5961;SDS011;3007;50.770;0.250;2022-09-21T03:55:42;1.97;;;1.60;;
5961;SDS011;3007;50.770;0.250;2022-09-21T03:58:09;2.70;;;1.50;;
5961;SDS011;3007;50.770;0.250;2022-09-21T04:00:36;3.07;;;1.40;;
5961;SDS011;3007;50.770;0.250;2022-09-21T04:03:03;2.97;;;1.50;;
5961;SDS011;3007;50.770;0.250;2022-09-21T04:05:30;1.30;;;1.20;;
5961;SDS011;3007;50.770;0.250;2022-09-21T04:07:56;3.57;;;1.40;;
5961;SDS011;3007;50.770;0.250;2022-09-21T04:10:27;3.30;;;1.77;;
5961;SDS011;3007;50.770;0.250;2022-09-21T04:12:56;5.10;;;1.60;;
5961;SDS011;3007;50.770;0.250;2022-09-21T04:15:25;2.87;;;1.30;;
5961;SDS011;3007;50.770;0.250;2022-09-21T04:17:52;2.63;;;1.90;;
5961;SDS011;3007;50.770;0.250;2022-09-21T04:20:19;1.83;;;1.37;;
5961;SDS011;3007;50.770;0.250;2022-09-21T04:22:46;1.93;;;1.30;;
5961;SDS011;3007;50.770;0.250;2022-09-21T04:25:14;1.83;;;1.70;;
5961;SDS011;3007;50.770;0.250;2022-09-21T04:27:43;2.07;;;1.53;;
5961;SDS011;3007;50.770;0.250;2022-09-21T04:30:10;3.20;;;2.57;;
5961;SDS011;3007;50.770;0.250;2022-09-21T04:32:38;3.17;;;1.73;;
5961;SDS011;3007;50.770;0.250;2022-09-21T04:35:05;3.23;;;2.13;;
5961;SDS011;3007;50.770;0.250;2022-09-21T04:37:33;2.33;;;1.90;;
5961;SDS011;3007;50.770;0.250;2022-09-21T04:40:00;4.60;;;2.00;;
5961;SDS011;3007;50.770;0.250;2022-09-21T04:42:28;3.00;;;1.97;;
5961;SDS011;3007;50.770;0.250;2022-09-21T04:44:56;2.50;;;1.97;;
5961;SDS011;3007;50.770;0.250;2022-09-21T04:47:23;2.87;;;2.27;;
5961;SDS011;3007;50.770;0.250;2022-09-21T04:49:50;2.80;;;2.10;;
5961;SDS011;3007;50.770;0.250;2022-09-21T04:52:17;4.00;;;2.50;;
5961;SDS011;3007;50.770;0.250;2022-09-21T04:54:45;4.07;;;2.43;;
5961;SDS011;3007;50.770;0.250;2022-09-21T04:57:12;3.20;;;2.07;;
5961;SDS011;3007;50.770;0.250;2022-09-21T04:59:39;4.57;;;2.33;;
5961;SDS011;3007;50.770;0.250;2022-09-21T05:02:07;3.37;;;2.37;;
5961;SDS011;3007;50.770;0.250;2022-09-21T05:04:34;5.33;;;2.37;;
5961;SDS011;3007;50.770;0.250;2022-09-21T05:07:01;3.03;;;2.10;;
5961;SDS011;3007;50.770;0.250;2022-09-21T05:09:28;2.87;;;2.00;;
5961;SDS011;3007;50.770;0.250;2022-09-21T05:12:12;5.47;;;2.10;;
5961;SDS011;3007;50.770;0.250;2022-09-21T05:14:38;10.10;;;2.40;;
5961;SDS011;3007;50.770;0.250;2022-09-21T05:17:09;5.43;;;2.57;;
5961;SDS011;3007;50.770;0.250;2022-09-21T05:19:36;2.63;;;2.00;;
5961;SDS011;3007;50.770;0.250;2022-09-21T05:22:03;9.53;;;2.93;;
5961;SDS011;3007;50.770;0.250;2022-09-21T05:24:30;4.87;;;2.27;;
5961;SDS011;3007;50.770;0.250;2022-09-21T05:26:57;3.63;;;2.10;;
5961;SDS011;3007;50.770;0.250;2022-09-21T05:29:24;5.07;;;2.50;;
5961;SDS011;3007;50.770;0.250;2022-09-21T05:31:53;3.70;;;2.77;;
5961;SDS011;3007;50.770;0.250;2022-09-21T05:34:35;4.63;;;2.80;;
5961;SDS011;3007;50.770;0.250;2022-09-21T05:37:11;3.73;;;2.50;;
5961;SDS011;3007;50.770;0.250;2022-09-21T05:39:55;4.63;;;2.30;;
5961;SDS011;3007;50.770;0.250;2022-09-21T05:42:22;4.50;;;2.27;;
5961;SDS011;3007;50.770;0.250;2022-09-21T05:44:50;2.50;;;2.30;;
5961;SDS011;3007;50.770;0.250;2022-09-21T05:47:20;3.90;;;2.33;;
5961;SDS011;3007;50.770;0.250;2022-09-21T05:49:54;5.37;;;3.03;;
5961;SDS011;3007;50.770;0.250;2022-09-21T05:52:32;3.30;;;2.37;;
5961;SDS011;3007;50.770;0.250;2022-09-21T05:55:09;3.23;;;2.70;;
5961;SDS011;3007;50.770;0.250;2022-09-21T05:57:48;3.80;;;2.30;;
5961;SDS011;3007;50.770;0.250;2022-09-21T06:00:20;3.83;;;2.53;;
5961;SDS011;3007;50.770;0.250;2022-09-21T06:03:03;2.83;;;2.23;;
5961;SDS011;3007;50.770;0.250;2022-09-21T06:05:47;3.00;;;2.70;;
5961;SDS011;3007;50.770;0.250;2022-09-21T06:08:13;3.53;;;2.40;;
5961;SDS011;3007;50.770;0.250;2022-09-21T06:10:40;3.30;;;2.40;;
5961;SDS011;3007;50.770;0.250;2022-09-21T06:13:07;4.27;;;2.30;;
5961;SDS011;3007;50.770;0.250;2022-09-21T06:15:34;4.47;;;2.20;;
5961;SDS011;3007;50.770;0.250;2022-09-21T06:18:02;3.57;;;2.57;;
5961;SDS011;3007;50.770;0.250;2022-09-21T06:20:29;4.37;;;3.40;;
5961;SDS011;3007;50.770;0.250;2022-09-21T06:23:00;4.70;;;2.90;;
5961;SDS011;3007;50.770;0.250;2022-09-21T06:25:28;3.27;;;2.60;;
5961;SDS011;3007;50.770;0.250;2022-09-21T06:27:54;2.83;;;2.33;;
5961;SDS011;3007;50.770;0.250;2022-09-21T06:30:26;5.53;;;2.30;;
5961;SDS011;3007;50.770;0.250;2022-09-21T06:32:53;4.97;;;2.40;;
5961;SDS011;3007;50.770;0.250;2022-09-21T06:35:24;9.07;;;2.90;;
5961;SDS011;3007;50.770;0.250;2022-09-21T06:37:50;2.33;;;2.13;;
5961;SDS011;3007;50.770;0.250;2022-09-21T06:40:19;4.23;;;2.57;;
5961;SDS011;3007;50.770;0.250;2022-09-21T06:42:45;3.53;;;2.00;;
5961;SDS011;3007;50.770;0.250;2022-09-21T06:45:12;4.07;;;2.33;;
5961;SDS011;3007;50.770;0.250;2022-09-21T06:47:45;2.83;;;1.90;;
5961;SDS011;3007;50.770;0.250;2022-09-21T06:50:12;3.50;;;2.20;;
5961;SDS011;3007;50.770;0.250;2022-09-21T06:52:39;2.67;;;2.30;;
5961;SDS011;3007;50.770;0.250;2022-09-21T06:55:06;2.73;;;2.20;;
5961;SDS011;3007;50.770;0.250;2022-09-21T06:57:36;3.17;;;1.90;;
5961;SDS011;3007;50.770;0.250;2022-09-21T07:00:03;3.03;;;1.77;;
5961;SDS011;3007;50.770;0.250;2022-09-21T07:02:31;2.95;;;1.73;;
5961;SDS011;3007;50.770;0.250;2022-09-21T07:04:58;1.88;;;1.40;;
5961;SDS011;3007;50.770;0.250;2022-09-21T07:07:26;1.58;;;1.48;;
5961;SDS011;3007;50.770;0.250;2022-09-21T07:09:55;1.40;;;1.30;;
5961;SDS011;3007;50.770;0.250;2022-09-21T07:12:23;2.45;;;1.45;;
5961;SDS011;3007;50.770;0.250;2022-09-21T07:14:51;2.95;;;1.30;;
5961;SDS011;3007;50.770;0.250;2022-09-21T07:17:19;2.05;;;1.73;;
5961;SDS011;3007;50.770;0.250;2022-09-21T07:19:46;2.50;;;1.48;;
5961;SDS011;3007;50.770;0.250;2022-09-21T07:22:14;1.77;;;1.40;;
5961;SDS011;3007;50.770;0.250;2022-09-21T07:24:41;1.88;;;1.23;;
5961;SDS011;3007;50.770;0.250;2022-09-21T07:27:08;1.77;;;1.38;;
5961;SDS011;3007;50.770;0.250;2022-09-21T07:29:35;2.40;;;1.70;;
5961;SDS011;3007;50.770;0.250;2022-09-21T07:32:03;2.63;;;1.70;;
5961;SDS011;3007;50.770;0.250;2022-09-21T07:34:33;2.20;;;1.45;;
5961;SDS011;3007;50.770;0.250;2022-09-21T07:37:01;2.80;;;1.42;;
5961;SDS011;3007;50.770;0.250;2022-09-21T07:39:29;2.60;;;1.42;;
5961;SDS011;3007;50.770;0.250;2022-09-21T07:41:56;1.85;;;1.48;;
5961;SDS011;3007;50.770;0.250;2022-09-21T07:44:23;2.63;;;1.55;;
5961;SDS011;3007;50.770;0.250;2022-09-21T07:46:50;1.48;;;1.38;;
5961;SDS011;3007;50.770;0.250;2022-09-21T07:49:19;1.88;;;1.52;;
5961;SDS011;3007;50.770;0.250;2022-09-21T07:51:46;1.73;;;1.42;;
5961;SDS011;3007;50.770;0.250;2022-09-21T07:54:13;2.08;;;1.70;;
5961;SDS011;3007;50.770;0.250;2022-09-21T07:56:40;3.00;;;1.70;;
5961;SDS011;3007;50.770;0.250;2022-09-21T07:59:27;2.97;;;1.80;;
5961;SDS011;3007;50.770;0.250;2022-09-21T08:01:57;4.10;;;1.67;;
5961;SDS011;3007;50.770;0.250;2022-09-21T08:04:25;3.28;;;2.38;;
5961;SDS011;3007;50.770;0.250;2022-09-21T08:06:52;4.13;;;1.92;;
5961;SDS011;3007;50.770;0.250;2022-09-21T08:09:20;5.60;;;2.00;;
5961;SDS011;3007;50.770;0.250;2022-09-21T08:11:47;3.38;;;2.13;;
5961;SDS011;3007;50.770;0.250;2022-09-21T08:14:16;2.70;;;1.90;;
5961;SDS011;3007;50.770;0.250;2022-09-21T08:16:44;2.42;;;1.85;;
5961;SDS011;3007;50.770;0.250;2022-09-21T08:19:12;2.35;;;1.75;;
5961;SDS011;3007;50.770;0.250;2022-09-21T08:21:41;2.53;;;1.88;;
5961;SDS011;3007;50.770;0.250;2022-09-21T08:24:09;3.35;;;2.30;;
5961;SDS011;3007;50.770;0.250;2022-09-21T08:26:38;2.60;;;2.30;;
5961;SDS011;3007;50.770;0.250;2022-09-21T08:29:05;2.53;;;2.22;;
5961;SDS011;3007;50.770;0.250;2022-09-21T08:31:32;2.60;;;2.20;;
5961;SDS011;3007;50.770;0.250;2022-09-21T08:33:59;4.50;;;2.30;;
5961;SDS011;3007;50.770;0.250;2022-09-21T08:36:34;2.65;;;2.13;;
5961;SDS011;3007;50.770;0.250;2022-09-21T08:39:03;3.33;;;2.25;;
5961;SDS011;3007;50.770;0.250;2022-09-21T08:41:35;3.45;;;2.30;;
5961;SDS011;3007;50.770;0.250;2022-09-21T08:44:18;2.70;;;2.08;;
5961;SDS011;3007;50.770;0.250;2022-09-21T08:46:52;2.72;;;1.90;;
5961;SDS011;3007;50.770;0.250;2022-09-21T08:49:27;3.80;;;2.35;;
5961;SDS011;3007;50.770;0.250;2022-09-21T08:51:57;2.78;;;2.40;;
5961;SDS011;3007;50.770;0.250;2022-09-21T08:54:28;4.07;;;2.13;;
5961;SDS011;3007;50.770;0.250;2022-09-21T08:57:03;2.88;;;2.00;;
5961;SDS011;3007;50.770;0.250;2022-09-21T08:59:30;5.50;;;2.90;;
5961;SDS011;3007;50.770;0.250;2022-09-21T09:02:00;3.60;;;2.40;;
5961;SDS011;3007;50.770;0.250;2022-09-21T09:04:41;3.30;;;2.20;;
5961;SDS011;3007;50.770;0.250;2022-09-21T09:07:22;6.03;;;2.35;;
5961;SDS011;3007;50.770;0.250;2022-09-21T09:10:10;3.05;;;2.50;;
5961;SDS011;3007;50.770;0.250;2022-09-21T09:12:51;2.05;;;1.83;;
5961;SDS011;3007;50.770;0.250;2022-09-21T09:18:22;2.77;;;2.43;;
5961;SDS011;3007;50.770;0.250;2022-09-21T09:20:55;2.97;;;2.10;;
5961;SDS011;3007;50.770;0.250;2022-09-21T09:23:25;3.13;;;2.22;;
5961;SDS011;3007;50.770;0.250;2022-09-21T09:25:58;2.83;;;2.30;;
5961;SDS011;3007;50.770;0.250;2022-09-21T09:28:32;2.72;;;2.08;;
5961;SDS011;3007;50.770;0.250;2022-09-21T09:31:03;2.58;;;2.17;;
5961;SDS011;3007;50.770;0.250;2022-09-21T09:33:40;2.40;;;2.17;;
5961;SDS011;3007;50.770;0.250;2022-09-21T09:36:13;3.58;;;2.05;;
5961;SDS011;3007;50.770;0.250;2022-09-21T09:38:41;4.07;;;2.00;;
5961;SDS011;3007;50.770;0.250;2022-09-21T09:41:32;2.38;;;2.00;;
5961;SDS011;3007;50.770;0.250;2022-09-21T09:44:13;2.40;;;1.77;;
5961;SDS011;3007;50.770;0.250;2022-09-21T09:46:52;6.07;;;2.10;;
5961;SDS011;3007;50.770;0.250;2022-09-21T09:49:27;3.80;;;2.50;;
5961;SDS011;3007;50.770;0.250;2022-09-21T09:51:59;2.70;;;2.08;;
5961;SDS011;3007;50.770;0.250;2022-09-21T09:54:26;4.30;;;2.08;;
5961;SDS011;3007;50.770;0.250;2022-09-21T09:57:00;2.80;;;2.17;;
5961;SDS011;3007;50.770;0.250;2022-09-21T09:59:31;3.20;;;1.95;;
5961;SDS011;3007;50.770;0.250;2022-09-21T10:02:02;4.75;;;2.50;;
5961;SDS011;3007;50.770;0.250;2022-09-21T10:04:32;2.15;;;1.77;;
5961;SDS011;3007;50.770;0.250;2022-09-21T10:06:59;2.42;;;1.73;;
5961;SDS011;3007;50.770;0.250;2022-09-21T10:09:27;1.88;;;1.73;;
5961;SDS011;3007;50.770;0.250;2022-09-21T10:11:57;2.03;;;1.73;;
5961;SDS011;3007;50.770;0.250;2022-09-21T10:14:29;2.13;;;1.65;;
5961;SDS011;3007;50.770;0.250;2022-09-21T10:17:01;2.95;;;1.70;;
5961;SDS011;3007;50.770;0.250;2022-09-21T10:19:31;4.93;;;1.70;;
5961;SDS011;3007;50.770;0.250;2022-09-21T10:21:58;2.53;;;1.70;;
5961;SDS011;3007;50.770;0.250;2022-09-21T10:24:27;4.07;;;1.70;;
5961;SDS011;3007;50.770;0.250;2022-09-21T10:27:01;2.53;;;1.75;;
5961;SDS011;3007;50.770;0.250;2022-09-21T10:29:37;2.53;;;1.80;;
5961;SDS011;3007;50.770;0.250;2022-09-21T10:32:17;2.72;;;1.67;;
5961;SDS011;3007;50.770;0.250;2022-09-21T10:35:08;4.97;;;1.80;;
5961;SDS011;3007;50.770;0.250;2022-09-21T10:37:40;2.67;;;1.75;;
5961;SDS011;3007;50.770;0.250;2022-09-21T10:42:53;3.25;;;1.85;;
5961;SDS011;3007;50.770;0.250;2022-09-21T10:45:24;2.80;;;1.40;;
5961;SDS011;3007;50.770;0.250;2022-09-21T10:47:54;2.10;;;1.63;;
5961;SDS011;3007;50.770;0.250;2022-09-21T10:50:24;2.72;;;1.88;;
5961;SDS011;3007;50.770;0.250;2022-09-21T10:52:59;3.65;;;1.98;;
5961;SDS011;3007;50.770;0.250;2022-09-21T10:55:36;2.20;;;1.67;;
5961;SDS011;3007;50.770;0.250;2022-09-21T10:58:09;3.85;;;1.90;;
5961;SDS011;3007;50.770;0.250;2022-09-21T11:00:41;4.13;;;2.05;;
5961;SDS011;3007;50.770;0.250;2022-09-21T11:03:27;2.65;;;1.80;;
5961;SDS011;3007;50.770;0.250;2022-09-21T11:06:09;3.90;;;2.00;;
5961;SDS011;3007;50.770;0.250;2022-09-21T11:08:42;2.72;;;1.52;;
5961;SDS011;3007;50.770;0.250;2022-09-21T11:14:11;1.65;;;1.55;;
5961;SDS011;3007;50.770;0.250;2022-09-21T11:16:46;5.13;;;2.60;;
5961;SDS011;3007;50.770;0.250;2022-09-21T11:19:19;2.28;;;1.42;;
5961;SDS011;3007;50.770;0.250;2022-09-21T11:21:53;2.42;;;1.48;;
5961;SDS011;3007;50.770;0.250;2022-09-21T11:24:27;2.55;;;1.85;;
5961;SDS011;3007;50.770;0.250;2022-09-21T11:27:01;1.92;;;1.45;;
5961;SDS011;3007;50.770;0.250;2022-09-21T11:29:36;2.78;;;1.30;;
5961;SDS011;3007;50.770;0.250;2022-09-21T11:32:15;3.08;;;2.00;;
5961;SDS011;3007;50.770;0.250;2022-09-21T11:37:50;2.83;;;1.73;;
5961;SDS011;3007;50.770;0.250;2022-09-21T11:40:33;2.38;;;1.88;;
5961;SDS011;3007;50.770;0.250;2022-09-21T11:43:11;1.85;;;1.58;;
5961;SDS011;3007;50.770;0.250;2022-09-21T11:45:52;3.08;;;1.85;;
5961;SDS011;3007;50.770;0.250;2022-09-21T11:48:30;3.00;;;1.67;;
5961;SDS011;3007;50.770;0.250;2022-09-21T11:51:12;2.33;;;2.08;;
5961;SDS011;3007;50.770;0.250;2022-09-21T11:54:04;2.92;;;1.77;;
5961;SDS011;3007;50.770;0.250;2022-09-21T11:56:45;2.00;;;1.75;;
5961;SDS011;3007;50.770;0.250;2022-09-21T11:59:23;4.63;;;1.77;;
5961;SDS011;3007;50.770;0.250;2022-09-21T12:02:13;3.45;;;1.63;;
5961;SDS011;3007;50.770;0.250;2022-09-21T12:05:01;2.60;;;1.77;;
5961;SDS011;3007;50.770;0.250;2022-09-21T12:07:43;4.07;;;1.90;;
5961;SDS011;3007;50.770;0.250;2022-09-21T12:10:34;3.65;;;1.90;;
5961;SDS011;3007;50.770;0.250;2022-09-21T12:13:11;2.45;;;1.60;;
5961;SDS011;3007;50.770;0.250;2022-09-21T12:15:48;2.90;;;1.70;;
5961;SDS011;3007;50.770;0.250;2022-09-21T12:18:23;1.88;;;1.70;;
5961;SDS011;3007;50.770;0.250;2022-09-21T12:20:59;1.98;;;1.50;;
5961;SDS011;3007;50.770;0.250;2022-09-21T12:23:35;2.58;;;1.48;;
5961;SDS011;3007;50.770;0.250;2022-09-21T12:26:06;2.03;;;1.42;;
5961;SDS011;3007;50.770;0.250;2022-09-21T12:28:37;2.75;;;1.73;;
5961;SDS011;3007;50.770;0.250;2022-09-21T12:31:08;2.65;;;1.80;;
5961;SDS011;3007;50.770;0.250;2022-09-21T12:33:42;2.50;;;2.17;;
5961;SDS011;3007;50.770;0.250;2022-09-21T12:36:15;2.78;;;1.95;;
5961;SDS011;3007;50.770;0.250;2022-09-21T12:38:52;2.15;;;1.77;;
5961;SDS011;3007;50.770;0.250;2022-09-21T12:41:28;2.75;;;1.83;;
5961;SDS011;3007;50.770;0.250;2022-09-21T12:44:06;2.83;;;1.67;;
5961;SDS011;3007;50.770;0.250;2022-09-21T12:46:42;1.45;;;1.35;;
5961;SDS011;3007;50.770;0.250;2022-09-21T12:49:14;1.67;;;1.50;;
5961;SDS011;3007;50.770;0.250;2022-09-21T12:51:47;1.70;;;1.60;;
5961;SDS011;3007;50.770;0.250;2022-09-21T12:54:21;2.50;;;1.85;;
5961;SDS011;3007;50.770;0.250;2022-09-21T12:56:56;2.45;;;1.60;;
5961;SDS011;3007;50.770;0.250;2022-09-21T12:59:29;2.40;;;1.40;;
5961;SDS011;3007;50.770;0.250;2022-09-21T13:02:04;1.52;;;1.20;;
5961;SDS011;3007;50.770;0.250;2022-09-21T13:04:44;2.97;;;1.70;;
5961;SDS011;3007;50.770;0.250;2022-09-21T13:07:33;1.63;;;1.42;;
5961;SDS011;3007;50.770;0.250;2022-09-21T13:10:28;3.17;;;1.88;;
5961;SDS011;3007;50.770;0.250;2022-09-21T13:13:03;2.70;;;1.70;;
5961;SDS011;3007;50.770;0.250;2022-09-21T13:15:40;2.42;;;1.95;;
5961;SDS011;3007;50.770;0.250;2022-09-21T13:18:15;4.88;;;2.10;;
5961;SDS011;3007;50.770;0.250;2022-09-21T13:20:46;2.25;;;1.75;;
5961;SDS011;3007;50.770;0.250;2022-09-21T13:23:19;2.67;;;1.73;;
5961;SDS011;3007;50.770;0.250;2022-09-21T13:25:57;1.80;;;1.58;;
5961;SDS011;3007;50.770;0.250;2022-09-21T13:31:30;2.17;;;1.60;;
5961;SDS011;3007;50.770;0.250;2022-09-21T13:34:15;1.70;;;1.60;;
5961;SDS011;3007;50.770;0.250;2022-09-21T13:43:18;3.15;;;1.83;;
5961;SDS011;3007;50.770;0.250;2022-09-21T13:45:49;2.75;;;1.67;;
5961;SDS011;3007;50.770;0.250;2022-09-21T13:48:19;5.40;;;1.52;;
5961;SDS011;3007;50.770;0.250;2022-09-21T13:50:54;2.42;;;1.65;;
5961;SDS011;3007;50.770;0.250;2022-09-21T13:53:24;2.15;;;1.60;;
5961;SDS011;3007;50.770;0.250;2022-09-21T13:56:00;2.10;;;1.30;;
5961;SDS011;3007;50.770;0.250;2022-09-21T13:58:34;1.40;;;1.23;;
5961;SDS011;3007;50.770;0.250;2022-09-21T14:01:06;3.90;;;1.20;;
5961;SDS011;3007;50.770;0.250;2022-09-21T14:03:41;1.98;;;1.30;;
5961;SDS011;3007;50.770;0.250;2022-09-21T14:06:13;1.60;;;1.25;;
5961;SDS011;3007;50.770;0.250;2022-09-21T14:08:46;2.63;;;1.42;;
5961;SDS011;3007;50.770;0.250;2022-09-21T14:11:19;1.63;;;1.30;;
5961;SDS011;3007;50.770;0.250;2022-09-21T14:13:58;1.50;;;1.40;;
5961;SDS011;3007;50.770;0.250;2022-09-21T14:16:49;1.70;;;1.30;;
5961;SDS011;3007;50.770;0.250;2022-09-21T14:22:37;1.67;;;1.10;;
5961;SDS011;3007;50.770;0.250;2022-09-21T14:25:21;1.92;;;1.30;;
5961;SDS011;3007;50.770;0.250;2022-09-21T14:27:52;2.22;;;1.50;;
5961;SDS011;3007;50.770;0.250;2022-09-21T14:30:24;2.08;;;1.35;;
5961;SDS011;3007;50.770;0.250;2022-09-21T14:32:59;2.28;;;1.40;;
5961;SDS011;3007;50.770;0.250;2022-09-21T14:35:51;2.53;;;1.65;;
5961;SDS011;3007;50.770;0.250;2022-09-21T14:38:21;2.00;;;1.23;;
5961;SDS011;3007;50.770;0.250;2022-09-21T14:40:50;1.40;;;1.30;;
5961;SDS011;3007;50.770;0.250;2022-09-21T14:43:23;1.50;;;1.23;;
5961;SDS011;3007;50.770;0.250;2022-09-21T14:45:59;2.92;;;1.30;;
5961;SDS011;3007;50.770;0.250;2022-09-21T14:48:52;3.35;;;1.27;;
5961;SDS011;3007;50.770;0.250;2022-09-21T14:51:35;1.50;;;1.15;;
5961;SDS011;3007;50.770;0.250;2022-09-21T14:54:21;3.05;;;1.38;;
5961;SDS011;3007;50.770;0.250;2022-09-21T14:57:13;1.73;;;1.40;;
5961;SDS011;3007;50.770;0.250;2022-09-21T15:00:05;2.55;;;1.30;;
5961;SDS011;3007;50.770;0.250;2022-09-21T15:02:45;1.63;;;1.13;;
5961;SDS011;3007;50.770;0.250;2022-09-21T15:05:17;2.40;;;1.17;;
5961;SDS011;3007;50.770;0.250;2022-09-21T15:07:53;1.58;;;1.25;;
5961;SDS011;3007;50.770;0.250;2022-09-21T15:10:48;2.70;;;1.20;;
5961;SDS011;3007;50.770;0.250;2022-09-21T15:13:30;1.30;;;0.98;;
5961;SDS011;3007;50.770;0.250;2022-09-21T15:16:12;1.90;;;1.27;;
5961;SDS011;3007;50.770;0.250;2022-09-21T15:19:00;1.92;;;1.40;;
5961;SDS011;3007;50.770;0.250;2022-09-21T15:21:36;3.70;;;1.40;;
5961;SDS011;3007;50.770;0.250;2022-09-21T15:24:09;3.17;;;1.50;;
5961;SDS011;3007;50.770;0.250;2022-09-21T15:26:49;1.50;;;1.30;;
5961;SDS011;3007;50.770;0.250;2022-09-21T15:29:21;2.90;;;1.55;;
5961;SDS011;3007;50.770;0.250;2022-09-21T15:31:52;2.78;;;1.67;;
5961;SDS011;3007;50.770;0.250;2022-09-21T15:34:20;2.72;;;2.10;;
5961;SDS011;3007;50.770;0.250;2022-09-21T15:36:48;1.92;;;1.50;;
5961;SDS011;3007;50.770;0.250;2022-09-21T15:39:23;4.00;;;1.65;;
5961;SDS011;3007;50.770;0.250;2022-09-21T15:44:44;2.22;;;1.88;;
5961;SDS011;3007;50.770;0.250;2022-09-21T15:47:15;2.50;;;1.60;;
5961;SDS011;3007;50.770;0.250;2022-09-21T15:49:44;2.25;;;1.58;;
5961;SDS011;3007;50.770;0.250;2022-09-21T15:52:13;1.88;;;1.50;;
5961;SDS011;3007;50.770;0.250;2022-09-21T15:54:47;2.53;;;1.60;;
5961;SDS011;3007;50.770;0.250;2022-09-21T15:57:21;3.45;;;1.77;;
5961;SDS011;3007;50.770;0.250;2022-09-21T16:00:02;2.17;;;1.80;;
5961;SDS011;3007;50.770;0.250;2022-09-21T16:02:35;4.35;;;1.83;;
5961;SDS011;3007;50.770;0.250;2022-09-21T16:05:04;3.17;;;1.67;;
5961;SDS011;3007;50.770;0.250;2022-09-21T16:07:38;2.10;;;1.42;;
5961;SDS011;3007;50.770;0.250;2022-09-21T16:10:33;1.52;;;1.42;;
5961;SDS011;3007;50.770;0.250;2022-09-21T16:13:03;3.22;;;1.27;;
5961;SDS011;3007;50.770;0.250;2022-09-21T16:15:58;1.77;;;1.25;;
5961;SDS011;3007;50.770;0.250;2022-09-21T16:18:31;1.48;;;1.00;;